createdAt,value
2022-08-04T00:00:50.406Z,100869.00
2022-08-04T00:03:24.672Z,100872.31
2022-08-04T00:06:05.570Z,100869.81
2022-08-04T00:08:48.815Z,100868.19
2022-08-04T00:11:25.329Z,100870.25
2022-08-04T00:14:06.159Z,100863.75
2022-08-04T00:16:39.073Z,100864.56
2022-08-04T00:19:20.521Z,100860.09
2022-08-04T00:21:59.921Z,100856.41
2022-08-04T00:24:40.910Z,100869.47
2022-08-04T00:27:15.792Z,100861.69
2022-08-04T00:29:47.402Z,100861.69
2022-08-04T00:32:34.344Z,100866.16
2022-08-04T00:35:04.887Z,100865.81
2022-08-04T00:37:39.166Z,100867.78
2022-08-04T00:40:22.653Z,100869.81
2022-08-04T00:43:03.609Z,100862.06
2022-08-04T00:46:16.014Z,100862.88
2022-08-04T00:49:02.894Z,100865.72
2022-08-04T00:52:32.638Z,100867.34
2022-08-04T00:55:08.565Z,100862.06
2022-08-04T00:58:02.678Z,100864.47
2022-08-04T01:00:35.673Z,100856.38
2022-08-04T01:03:18.537Z,100862.44
2022-08-04T01:06:12.058Z,100864.44
2022-08-04T01:09:03.618Z,100856.97
2022-08-04T01:11:58.029Z,100861.25
2022-08-04T01:14:48.612Z,100859.84
2022-08-04T01:17:43.183Z,100857.28
2022-08-04T01:20:15.745Z,100855.06
2022-08-04T01:23:11.458Z,100856.97
2022-08-04T01:25:56.326Z,100860.50
2022-08-04T01:28:58.675Z,100852.59
2022-08-04T01:32:03.772Z,100845.31
2022-08-04T01:34:59.161Z,100845.19
2022-08-04T01:37:50.304Z,100846.28
2022-08-04T01:40:18.628Z,100840.41
2022-08-04T01:42:52.675Z,100846.41
2022-08-04T01:45:26.736Z,100845.06
2022-08-04T01:47:57.481Z,100845.50
2022-08-04T01:50:34.767Z,100835.25
2022-08-04T01:53:08.353Z,100844.63
2022-08-04T01:55:54.264Z,100840.59
2022-08-04T01:58:31.946Z,100836.25
2022-08-04T02:01:11.091Z,100846.22
2022-08-04T02:04:18.242Z,100845.50
2022-08-04T02:06:58.403Z,100844.00
2022-08-04T02:09:38.492Z,100842.41
2022-08-04T02:12:31.212Z,100847.47
2022-08-04T02:15:15.947Z,100846.84
2022-08-04T02:18:12.852Z,100851.06
2022-08-04T02:20:46.158Z,100857.47
2022-08-04T02:23:29.114Z,100855.50
2022-08-04T02:26:05.883Z,100851.94
2022-08-04T02:28:55.709Z,100847.13
2022-08-04T02:31:49.456Z,100841.56
2022-08-04T02:34:28.233Z,100842.16
2022-08-04T02:37:02.384Z,100839.56
2022-08-04T02:39:41.540Z,100844.53
2022-08-04T02:42:17.772Z,100839.84
2022-08-04T02:44:50.463Z,100843.16
2022-08-04T02:47:24.793Z,100839.13
2022-08-04T02:50:14.833Z,100837.22
2022-08-04T02:53:00.428Z,100834.88
2022-08-04T02:55:29.861Z,100835.78
2022-08-04T02:58:02.879Z,100837.00
2022-08-04T03:00:33.211Z,100835.03
2022-08-04T03:03:06.751Z,100827.72
2022-08-04T03:06:01.221Z,100825.75
2022-08-04T03:08:58.396Z,100832.69
2022-08-04T03:11:49.468Z,100827.00
2022-08-04T03:14:39.886Z,100831.53
2022-08-04T03:17:52.905Z,100842.56
2022-08-04T03:20:49.972Z,100839.72
2022-08-04T03:23:35.816Z,100839.72
2022-08-04T03:26:32.241Z,100826.69
2022-08-04T03:29:36.124Z,100829.16
2022-08-04T03:32:49.835Z,100827.94
2022-08-04T03:35:53.023Z,100827.94
2022-08-04T03:39:03.026Z,100828.38
2022-08-04T03:42:03.998Z,100824.72
2022-08-04T03:45:01.811Z,100822.66
2022-08-04T03:48:09.525Z,100825.59
2022-08-04T03:51:35.455Z,100824.34
2022-08-04T03:54:36.665Z,100817.41
2022-08-04T03:57:10.902Z,100830.06
2022-08-04T04:00:00.598Z,100830.06
2022-08-04T04:02:48.256Z,100832.09
2022-08-04T04:05:41.721Z,100825.97
2022-08-04T04:08:51.394Z,100827.66
2022-08-04T04:11:32.607Z,100829.78
2022-08-04T04:14:03.262Z,100825.72
2022-08-04T04:17:08.907Z,100842.53
2022-08-04T04:19:58.379Z,100833.31
2022-08-04T04:22:46.025Z,100835.06
2022-08-04T04:25:36.624Z,100847.34
2022-08-04T04:28:44.169Z,100840.44
2022-08-04T04:31:38.171Z,100839.28
2022-08-04T04:34:26.543Z,100834.81
2022-08-04T04:37:21.494Z,100837.81
2022-08-04T04:39:56.551Z,100844.69
2022-08-04T04:42:48.064Z,100846.72
2022-08-04T04:45:24.686Z,100849.56
2022-08-04T04:48:08.360Z,100851.69
2022-08-04T04:50:51.146Z,100839.47
2022-08-04T04:53:25.377Z,100846.78
2022-08-04T04:56:31.587Z,100851.25
2022-08-04T04:59:03.817Z,100854.53
2022-08-04T05:02:06.640Z,100847.22
2022-08-04T05:05:03.459Z,100854.91
2022-08-04T05:07:53.036Z,100855.34
2022-08-04T05:10:58.266Z,100860.25
2022-08-04T05:14:37.544Z,100856.13
2022-08-04T05:16:24.926Z,100852.88
2022-08-04T05:19:12.558Z,100856.09
2022-08-04T05:22:14.619Z,100852.88
2022-08-04T05:24:56.035Z,100862.22
2022-08-04T05:27:40.083Z,100856.91
2022-08-04T05:30:18.686Z,100858.50
2022-08-04T05:32:59.203Z,100862.97
2022-08-04T05:36:20.822Z,100860.50
2022-08-04T05:38:37.358Z,100861.75
2022-08-04T05:41:07.041Z,100860.41
2022-08-04T05:43:36.954Z,100861.22
2022-08-04T05:46:08.435Z,100867.31
2022-08-04T05:48:36.529Z,100865.25
2022-08-04T05:51:09.275Z,100864.44
2022-08-04T05:53:38.475Z,100861.53
2022-08-04T05:56:07.593Z,100865.63
2022-08-04T05:58:38.553Z,100864.75
2022-08-04T06:01:16.585Z,100856.13
2022-08-04T06:03:49.213Z,100853.69
2022-08-04T06:06:21.536Z,100860.41
2022-08-04T06:08:52.052Z,100858.63
2022-08-04T06:11:27.517Z,100864.91
2022-08-04T06:14:05.212Z,100854.03
2022-08-04T06:16:51.062Z,100864.25
2022-08-04T06:19:58.986Z,100857.78
2022-08-04T06:22:28.590Z,100864.75
2022-08-04T06:25:06.260Z,100859.03
2022-08-04T06:27:43.259Z,100864.78
2022-08-04T06:30:19.405Z,100856.31
2022-08-04T06:33:03.667Z,100859.50
2022-08-04T06:35:36.666Z,100869.63
2022-08-04T06:38:04.990Z,100869.63
2022-08-04T06:40:42.172Z,100867.97
2022-08-04T06:43:13.496Z,100874.53
2022-08-04T06:45:45.130Z,100876.19
2022-08-04T06:48:18.098Z,100878.72
2022-08-04T06:51:25.590Z,100877.53
2022-08-04T06:53:48.268Z,100879.59
2022-08-04T06:56:20.805Z,100882.09
2022-08-04T06:58:55.429Z,100879.66
2022-08-04T07:01:33.041Z,100880.44
2022-08-04T07:04:01.083Z,100875.59
2022-08-04T07:06:29.238Z,100879.72
2022-08-04T07:09:04.309Z,100882.13
2022-08-04T07:11:44.235Z,100880.09
2022-08-04T07:14:21.365Z,100881.75
2022-08-04T07:16:51.454Z,100880.56
2022-08-04T07:19:24.506Z,100874.88
2022-08-04T07:22:18.865Z,100869.97
2022-08-04T07:24:48.683Z,100873.63
2022-08-04T07:27:48.089Z,100869.97
2022-08-04T07:30:13.090Z,100868.38
2022-08-04T07:32:47.409Z,100866.38
2022-08-04T07:36:05.149Z,100873.25
2022-08-04T07:38:10.180Z,100870.78
2022-08-04T07:40:43.948Z,100875.66
2022-08-04T07:43:25.048Z,100872.81
2022-08-04T07:45:53.860Z,100877.34
2022-08-04T07:48:24.751Z,100879.75
2022-08-04T07:50:56.556Z,100871.63
2022-08-04T07:53:54.851Z,100872.47
2022-08-04T07:56:17.038Z,100874.06
2022-08-04T07:58:49.954Z,100875.31
2022-08-04T08:01:25.778Z,100873.69
2022-08-04T08:03:58.142Z,100869.63
2022-08-04T08:06:31.282Z,100865.13
2022-08-04T08:09:13.794Z,100860.28
2022-08-04T08:12:35.252Z,100851.75
2022-08-04T08:14:50.992Z,100866.81
2022-08-04T08:17:29.823Z,100855.09
2022-08-04T08:20:03.561Z,100860.75
2022-08-04T08:22:43.000Z,100859.50
2022-08-04T08:25:13.453Z,100868.03
2022-08-04T08:27:56.059Z,100861.94
2022-08-04T08:30:31.779Z,100864.84
2022-08-04T08:33:12.915Z,100861.47
2022-08-04T08:36:12.731Z,100860.28
2022-08-04T08:39:15.091Z,100851.75
2022-08-04T08:42:04.333Z,100857.03
2022-08-04T08:44:59.162Z,100849.66
2022-08-04T08:48:00.127Z,100845.63
2022-08-04T08:51:02.946Z,100844.03
2022-08-04T08:54:15.254Z,100851.34
2022-08-04T08:57:07.446Z,100838.34
2022-08-04T09:00:05.505Z,100852.13
2022-08-04T09:03:14.892Z,100850.09
2022-08-04T09:06:01.567Z,100851.34
2022-08-04T09:08:38.322Z,100847.28
2022-08-04T09:11:14.577Z,100844.06
2022-08-04T09:13:50.539Z,100846.91
2022-08-04T09:16:42.926Z,100851.38
2022-08-04T09:19:39.075Z,100848.91
2022-08-04T09:22:40.208Z,100848.03
2022-08-04T09:25:29.106Z,100841.41
2022-08-04T09:28:14.376Z,100844.31
2022-08-04T09:31:19.296Z,100849.66
2022-08-04T09:34:14.209Z,100842.34
2022-08-04T09:36:56.693Z,100849.28
2022-08-04T09:39:43.058Z,100844.84
2022-08-04T09:42:37.401Z,100844.38
2022-08-04T09:45:26.567Z,100842.34
2022-08-04T09:48:08.136Z,100835.84
2022-08-04T09:50:54.445Z,100836.22
2022-08-04T09:53:43.211Z,100833.00
2022-08-04T09:56:21.043Z,100834.13
2022-08-04T09:59:19.682Z,100825.56
2022-08-04T10:02:00.203Z,100824.38
2022-08-04T10:04:34.770Z,100823.63
2022-08-04T10:07:41.166Z,100824.75
2022-08-04T10:10:25.023Z,100820.34
2022-08-04T10:13:15.762Z,100813.44
2022-08-04T10:16:27.701Z,100816.28
2022-08-04T10:19:11.423Z,100816.28
2022-08-04T10:22:28.646Z,100807.34
2022-08-04T10:25:39.025Z,100806.53
2022-08-04T10:28:30.733Z,100799.97
2022-08-04T10:31:06.193Z,100804.09
2022-08-04T10:33:53.945Z,100799.97
2022-08-04T10:36:36.243Z,100800.38
2022-08-04T10:39:42.279Z,100800.31
2022-08-04T10:42:31.090Z,100798.59
2022-08-04T10:45:54.366Z,100800.25
2022-08-04T10:48:52.328Z,100797.81
2022-08-04T10:51:58.608Z,100788.47
2022-08-04T10:54:56.875Z,100792.63
2022-08-04T10:57:44.133Z,100798.66
2022-08-04T11:00:20.001Z,100788.13
2022-08-04T11:02:58.674Z,100791.44
2022-08-04T11:05:44.124Z,100793.91
2022-08-04T11:08:21.684Z,100789.84
2022-08-04T11:11:15.098Z,100785.06
2022-08-04T11:13:54.696Z,100783.81
2022-08-04T11:16:32.318Z,100780.59
2022-08-04T11:19:44.705Z,100772.03
2022-08-04T11:22:29.901Z,100782.63
2022-08-04T11:25:17.963Z,100773.28
2022-08-04T11:28:04.703Z,100777.38
2022-08-04T11:30:51.012Z,100780.66
2022-08-04T11:33:36.774Z,100773.34
2022-08-04T11:36:22.680Z,100775.75
2022-08-04T11:39:00.754Z,100766.84
2022-08-04T11:41:38.325Z,100773.75
2022-08-04T11:44:16.275Z,100768.06
2022-08-04T11:46:55.243Z,100769.25
2022-08-04T11:49:28.468Z,100766.03
2022-08-04T11:52:02.872Z,100766.84
2022-08-04T11:54:33.572Z,100767.66
2022-08-04T11:57:03.062Z,100764.06
2022-08-04T11:59:35.840Z,100771.34
2022-08-04T12:02:34.936Z,100766.47
2022-08-04T12:05:07.882Z,100764.41
2022-08-04T12:07:47.189Z,100762.81
2022-08-04T12:10:41.345Z,100756.31
2022-08-04T12:13:28.842Z,100756.31
2022-08-04T12:16:20.680Z,100755.44
2022-08-04T12:19:04.256Z,100750.22
2022-08-04T12:21:38.040Z,100753.09
2022-08-04T12:24:17.917Z,100743.75
2022-08-04T12:26:54.151Z,100739.28
2022-08-04T12:29:24.484Z,100741.31
2022-08-04T12:32:06.915Z,100735.94
2022-08-04T12:34:56.444Z,100739.50
2022-08-04T12:37:35.751Z,100736.72
2022-08-04T12:40:29.272Z,100737.56
2022-08-04T12:43:14.730Z,100733.16
2022-08-04T12:45:51.107Z,100733.94
2022-08-04T12:48:23.235Z,100735.19
2022-08-04T12:50:56.378Z,100740.03
2022-08-04T12:53:33.376Z,100733.53
2022-08-04T12:56:27.713Z,100725.41
2022-08-04T12:59:07.541Z,100725.78
2022-08-04T13:02:08.319Z,100725.34
2022-08-04T13:05:02.192Z,100730.22
2022-08-04T13:07:43.960Z,100725.78
2022-08-04T13:10:14.249Z,100729.50
2022-08-04T13:13:11.986Z,100714.06
2022-08-04T13:16:05.693Z,100716.97
2022-08-04T13:18:46.273Z,100714.44
2022-08-04T13:21:20.025Z,100714.88
2022-08-04T13:24:10.510Z,100714.44
2022-08-04T13:27:16.432Z,100706.72
2022-08-04T13:30:00.644Z,100698.53
2022-08-04T13:32:45.943Z,100696.91
2022-08-04T13:35:16.293Z,100696.91
2022-08-04T13:37:48.974Z,100687.63
2022-08-04T13:40:25.593Z,100692.09
2022-08-04T13:44:15.888Z,100680.34
2022-08-04T13:46:07.879Z,100680.69
2022-08-04T13:49:08.869Z,100675.78
2022-08-04T13:51:58.401Z,100673.78
2022-08-04T13:54:42.805Z,100669.28
2022-08-04T13:57:19.682Z,100669.69
2022-08-04T13:59:56.404Z,100662.81
2022-08-04T14:02:46.941Z,100659.88
2022-08-04T14:05:26.814Z,100667.63
2022-08-04T14:08:04.978Z,100665.22
2022-08-04T14:10:36.549Z,100661.13
2022-08-04T14:13:08.048Z,100657.47
2022-08-04T14:16:02.307Z,100665.22
2022-08-04T14:18:35.347Z,100657.97
2022-08-04T14:21:13.037Z,100654.31
2022-08-04T14:23:47.529Z,100648.56
2022-08-04T14:26:16.604Z,100652.59
2022-08-04T14:29:25.687Z,100646.50
2022-08-04T14:31:37.947Z,100638.75
2022-08-04T14:34:28.925Z,100630.22
2022-08-04T14:37:17.521Z,100639.06
2022-08-04T14:40:17.403Z,100633.69
2022-08-04T14:42:54.496Z,100634.50
2022-08-04T14:45:54.151Z,100636.97
2022-08-04T14:48:28.343Z,100634.09
2022-08-04T14:50:55.893Z,100631.41
2022-08-04T14:53:29.625Z,100634.25
2022-08-04T14:56:01.086Z,100636.28
2022-08-04T14:58:39.220Z,100635.88
2022-08-04T15:01:12.417Z,100632.28
2022-08-04T15:03:53.036Z,100627.81
2022-08-04T15:06:26.094Z,100635.63
2022-08-04T15:08:59.032Z,100630.81
2022-08-04T15:11:30.857Z,100630.84
2022-08-04T15:14:04.737Z,100622.13
2022-08-04T15:16:35.437Z,100634.31
2022-08-04T15:19:10.377Z,100626.16
2022-08-04T15:21:46.919Z,100618.53
2022-08-04T15:24:17.834Z,100624.66
2022-08-04T15:26:52.238Z,100611.19
2022-08-04T15:29:31.686Z,100620.47
2022-08-04T15:32:43.120Z,100616.44
2022-08-04T15:35:35.123Z,100607.88
2022-08-04T15:38:27.810Z,100602.56
2022-08-04T15:41:31.384Z,100600.13
2022-08-04T15:44:23.729Z,100603.44
2022-08-04T15:46:53.926Z,100594.91
2022-08-04T15:49:30.327Z,100603.00
2022-08-04T15:52:16.041Z,100601.75
2022-08-04T15:54:51.963Z,100594.91
2022-08-04T15:58:03.621Z,100598.88
2022-08-04T16:01:16.950Z,100592.41
2022-08-04T16:03:59.022Z,100592.41
2022-08-04T16:06:42.441Z,100582.56
2022-08-04T16:09:45.128Z,100583.34
2022-08-04T16:12:53.420Z,100583.50
2022-08-04T16:15:44.373Z,100583.44
2022-08-04T16:18:27.441Z,100580.66
2022-08-04T16:21:04.876Z,100586.28
2022-08-04T16:24:08.147Z,100583.06
2022-08-04T16:26:54.694Z,100573.25
2022-08-04T16:29:30.868Z,100575.59
2022-08-04T16:32:04.706Z,100571.97
2022-08-04T16:34:55.219Z,100570.28
2022-08-04T16:37:38.021Z,100574.28
2022-08-04T16:40:24.401Z,100571.88
2022-08-04T16:43:06.297Z,100579.19
2022-08-04T16:45:52.813Z,100568.66
2022-08-04T16:48:34.716Z,100568.25
2022-08-04T16:51:10.301Z,100573.94
2022-08-04T16:54:04.669Z,100573.13
2022-08-04T16:56:44.966Z,100570.72
2022-08-04T16:59:21.108Z,100574.00
2022-08-04T17:01:53.703Z,100570.72
2022-08-04T17:04:32.424Z,100573.13
2022-08-04T17:07:12.242Z,100565.00
2022-08-04T17:09:55.142Z,100568.59
2022-08-04T17:12:36.579Z,100577.13
2022-08-04T17:15:24.430Z,100572.34
2022-08-04T17:18:18.761Z,100577.66
2022-08-04T17:21:00.810Z,100581.38
2022-08-04T17:24:15.755Z,100581.38
2022-08-04T17:26:54.454Z,100580.94
2022-08-04T17:29:42.862Z,100578.53
2022-08-04T17:32:23.458Z,100573.63
2022-08-04T17:35:03.619Z,100585.41
2022-08-04T17:37:51.977Z,100580.50
2022-08-04T17:40:29.201Z,100581.31
2022-08-04T17:44:03.874Z,100580.50
2022-08-04T17:46:30.177Z,100589.06
2022-08-04T17:49:10.316Z,100584.59
2022-08-04T17:52:06.745Z,100587.38
2022-08-04T17:54:43.582Z,100587.31
2022-08-04T17:57:23.176Z,100579.19
2022-08-04T17:59:59.115Z,100594.59
2022-08-04T18:02:53.016Z,100585.25
2022-08-04T18:06:01.688Z,100584.47
2022-08-04T18:08:40.020Z,100581.22
2022-08-04T18:11:29.778Z,100583.28
2022-08-04T18:14:28.755Z,100586.84
2022-08-04T18:17:00.017Z,100587.22
2022-08-04T18:19:31.347Z,100588.50
2022-08-04T18:22:06.724Z,100588.91
2022-08-04T18:24:56.264Z,100588.84
2022-08-04T18:27:46.554Z,100583.59
2022-08-04T18:30:38.322Z,100586.06
2022-08-04T18:33:40.926Z,100592.84
2022-08-04T18:36:35.737Z,100596.16
2022-08-04T18:39:20.199Z,100593.66
2022-08-04T18:42:14.289Z,100593.25
2022-08-04T18:44:52.194Z,100596.50
2022-08-04T18:47:30.521Z,100593.25
2022-08-04T18:50:58.480Z,100595.22
2022-08-04T18:53:01.066Z,100602.59
2022-08-04T18:55:56.924Z,100605.44
2022-08-04T18:58:40.968Z,100607.03
2022-08-04T19:01:18.413Z,100617.63
2022-08-04T19:03:54.415Z,100606.22
2022-08-04T19:06:33.443Z,100611.13
2022-08-04T19:09:01.256Z,100609.47
2022-08-04T19:11:55.202Z,100619.16
2022-08-04T19:14:31.139Z,100617.19
2022-08-04T19:17:12.296Z,100620.47
2022-08-04T19:19:50.842Z,100631.00
2022-08-04T19:22:35.427Z,100631.81
2022-08-04T19:25:10.361Z,100635.03
2022-08-04T19:27:41.650Z,100643.13
2022-08-04T19:30:12.385Z,100648.47
2022-08-04T19:32:53.175Z,100652.13
2022-08-04T19:35:31.973Z,100658.16
2022-08-04T19:38:37.247Z,100666.31
2022-08-04T19:41:14.838Z,100676.44
2022-08-04T19:43:51.205Z,100675.66
2022-08-04T19:46:25.618Z,100678.50
2022-08-04T19:49:02.248Z,100689.53
2022-08-04T19:51:44.117Z,100695.66
2022-08-04T19:54:27.182Z,100695.22
2022-08-04T19:57:00.465Z,100708.59
2022-08-04T19:59:55.236Z,100710.28
2022-08-04T20:02:32.701Z,100711.16
2022-08-04T20:05:17.694Z,100718.00
2022-08-04T20:08:11.879Z,100723.28
2022-08-04T20:10:52.610Z,100717.22
2022-08-04T20:13:30.940Z,100724.91
2022-08-04T20:16:29.711Z,100718.81
2022-08-04T20:19:05.502Z,100719.56
2022-08-04T20:21:56.017Z,100723.66
2022-08-04T20:24:37.792Z,100731.78
2022-08-04T20:27:16.354Z,100737.09
2022-08-04T20:29:56.369Z,100728.53
2022-08-04T20:32:35.369Z,100724.91
2022-08-04T20:35:16.704Z,100724.91
2022-08-04T20:37:55.552Z,100730.59
2022-08-04T20:40:34.084Z,100732.19
2022-08-04T20:43:09.414Z,100726.06
2022-08-04T20:45:57.124Z,100727.31
2022-08-04T20:48:36.341Z,100727.31
2022-08-04T20:51:18.040Z,100726.94
2022-08-04T20:53:52.863Z,100736.28
2022-08-04T20:56:30.565Z,100728.19
2022-08-04T20:59:08.123Z,100728.63
2022-08-04T21:01:48.749Z,100739.16
2022-08-04T21:04:31.819Z,100732.66
2022-08-04T21:07:06.311Z,100734.69
2022-08-04T21:09:49.824Z,100736.75
2022-08-04T21:12:29.161Z,100731.03
2022-08-04T21:15:15.787Z,100736.38
2022-08-04T21:18:12.115Z,100741.19
2022-08-04T21:20:54.217Z,100730.66
2022-08-04T21:23:34.290Z,100737.16
2022-08-04T21:26:26.356Z,100736.28
2022-08-04T21:29:01.552Z,100739.59
2022-08-04T21:31:42.362Z,100740.81
2022-08-04T21:34:38.106Z,100749.00
2022-08-04T21:37:16.205Z,100740.09
2022-08-04T21:40:14.686Z,100753.47
2022-08-04T21:42:53.791Z,100748.22
2022-08-04T21:45:36.017Z,100750.16
2022-08-04T21:48:07.016Z,100750.63
2022-08-04T21:50:50.599Z,100754.31
2022-08-04T21:53:28.250Z,100751.06
2022-08-04T21:56:18.061Z,100746.09
2022-08-04T21:59:11.144Z,100756.75
2022-08-04T22:01:50.235Z,100746.16
2022-08-04T22:04:31.128Z,100749.38
2022-08-04T22:07:04.536Z,100753.25
2022-08-04T22:10:02.522Z,100749.91
2022-08-04T22:12:45.686Z,100754.66
2022-08-04T22:16:03.853Z,100747.06
2022-08-04T22:18:30.129Z,100742.03
2022-08-04T22:21:11.954Z,100743.94
2022-08-04T22:23:47.699Z,100739.03
2022-08-04T22:26:28.175Z,100736.81
2022-08-04T22:29:06.132Z,100739.34
2022-08-04T22:31:55.785Z,100741.66
2022-08-04T22:34:45.544Z,100731.25
2022-08-04T22:37:35.931Z,100734.78
2022-08-04T22:40:26.258Z,100733.56
2022-08-04T22:43:03.660Z,100739.75
2022-08-04T22:46:00.089Z,100733.19
2022-08-04T22:48:39.497Z,100738.66
2022-08-04T22:51:27.255Z,100730.63
2022-08-04T22:54:12.365Z,100739.09
2022-08-04T22:56:50.706Z,100742.34
2022-08-04T22:59:28.961Z,100737.13
2022-08-04T23:02:07.457Z,100737.22
2022-08-04T23:04:44.786Z,100740.50
2022-08-04T23:07:42.337Z,100730.00
2022-08-04T23:10:29.648Z,100739.75
2022-08-04T23:13:04.076Z,100730.56
2022-08-04T23:15:41.703Z,100724.25
2022-08-04T23:18:15.111Z,100730.81
2022-08-04T23:20:50.212Z,100732.94
2022-08-04T23:23:33.303Z,100734.31
2022-08-04T23:26:11.944Z,100729.84
2022-08-04T23:28:48.616Z,100720.16
2022-08-04T23:31:41.195Z,100732.09
2022-08-04T23:34:27.382Z,100727.31
2022-08-04T23:37:05.105Z,100731.41
2022-08-04T23:40:15.645Z,100717.94
2022-08-04T23:42:49.041Z,100728.25
2022-08-04T23:45:54.306Z,100731.13
2022-08-04T23:48:27.102Z,100731.13
2022-08-04T23:51:02.866Z,100727.88
2022-08-04T23:53:34.562Z,100727.44
2022-08-04T23:56:21.318Z,100724.22
2022-08-04T23:58:55.343Z,100730.34
